Tuesday, April 24, 2018, 9:01 PM EDT
Back to Local

KBED, Bedford Hanscom Field

Location: Concord, MA, United States Lat: 42.467
Local Time: 9:01 PM EDT ( 1:01 GMT) Lon: -71.3
Time Zone: US/Eastern Elev: 134 ft

Show me the last for .
Show Coded

Time T Td Feel RH Dir Speed Gust Alt SLP Vis Weather Sky Remarks
2018-04-24 19:56 57 35 - 43 180° 14 - 30.24 30.28 10 CLR 6-hr Min Temp (8pm): 57.0°F
6-hr Max Temp (8pm): 70.0°F
2018-04-24 18:56 60 35 - 39 160° 14 - 30.23 30.27 10 BKN200 None
2018-04-24 17:56 63 36 - 36 170° 15 - 30.24 30.28 10 CLR None
2018-04-24 16:56 65 36 - 34 180° 23 - 30.24 30.28 10 CLR None
2018-04-24 15:56 68 34 - 28 180° 15 21 30.24 30.28 10 FEW250 None
2018-04-24 14:56 69 25 - 18 200° 9 22 30.26 30.29 10 CLR None
2018-04-24 13:56 69 26 - 19 240° 10 21 30.29 30.32 10 FEW250 6-hr Min Temp (2pm): 48.0°F
6-hr Max Temp (2pm): 70.0°F
2018-04-24 12:56 67 26 - 21 200° 13 - 30.31 30.34 10 BKN250 None
2018-04-24 11:56 66 27 - 22 200° 10 - 30.34 30.38 10 BKN250 None
2018-04-24 10:56 63 27 - 25 200° 12 - 30.37 30.40 10 BKN250 None
2018-04-24 09:56 59 28 - 30 220° 10 - 30.38 30.42 10 SCT250 None
2018-04-24 08:56 54 34 - 46 210° 7 - 30.39 30.43 10 CLR None
2018-04-24 07:56 48 31 45 51 220° 7 - 30.39 30.43 10 CLR 6-hr Min Temp (8am): 35.1°F
6-hr Max Temp (8am): 48.0°F
2018-04-24 06:56 42 31 38 64 200° 7 - 30.39 30.43 10 CLR None
2018-04-24 05:56 37 27 33 66 210° 5 - 30.38 30.42 10 CLR None
2018-04-24 04:56 39 26 - 59 - Calm - 30.38 30.42 10 CLR None
2018-04-24 03:56 40 25 35 54 200° 7 - 30.39 30.43 10 CLR None
2018-04-24 02:56 41 24 36 50 210° 7 - 30.39 30.43 10 CLR None
2018-04-24 01:56 42 21 40 42 170° 3 - 30.40 30.44 10 CLR 6-hr Min Temp (2am): 42.1°F
6-hr Max Temp (2am): 55.0°F
2018-04-24 00:56 44 20 41 37 200° 6 - 30.41 30.45 10 CLR 24-hr Min Temp (1am): 28.9°F
24-hr Max Temp (1am): 64.9°F
2018-04-23 23:56 45 21 42 38 190° 6 - 30.42 30.46 10 CLR None
2018-04-23 22:56 47 22 44 36 210° 7 - 30.42 30.46 10 CLR None
2018-04-23 21:56 49 21 45 32 190° 8 - 30.42 30.46 10 CLR None

Support USWX by starting your Amazon purchase here.